ADDS METAR Data INFO
IDs: Format: Raw Decoded Include TAF

Data at: 1943 UTC 18 Feb 2018

KCVG 181852Z 14009KT 10SM FEW130 SCT150 BKN250 07/01 A3029 RMK AO2 SLP259 T00670011
KCVG 181752Z 11006KT 10SM SCT130 BKN250 05/00 A3032 RMK AO2 SLP271 T00500000 10050 20000 58012 $
KCVG 181652Z 11006KT 9SM FEW019 SCT150 SCT250 04/00 A3035 RMK AO2 SLP282 T00390000 $
KCVG 181552Z 14010KT 10SM BKN019 BKN250 03/00 A3037 RMK AO2 SLP287 T00330000 $
KCVG 181452Z 13007KT 10SM BKN020 02/M01 A3036 RMK AO2 SLP285 T00171011 51006 $
KCVG 181352Z 13006KT 10SM FEW020 SCT150 BKN250 01/M02 A3036 RMK AO2 SLP285 T00111017 $
KCVG 181252Z 11004KT 9SM BKN020 00/M01 A3034 RMK AO2 SLP280 T00001011 $
KCVG 181152Z 35003KT 10SM BKN018 OVC024 01/M02 A3034 RMK AO2 SLP279 70024 T00061022 10022 20000 53027 $
KCVG 181052Z 00000KT 9SM BKN018 OVC022 00/M01 A3032 RMK AO2 SLP272 T00001011 $
KCVG 180952Z 33003KT 10SM OVC018 01/M01 A3028 RMK AO2 SLP257 T00061011 $
KCVG 180852Z 31006KT 10SM BKN019 01/M01 A3026 RMK AO2 SLP251 T00061011 53020 $
KCVG 180823Z 32007KT 9SM BKN018 01/M01 A3024 RMK AO2 T00061011 $
KCVG 180752Z 33008KT 9SM FEW018 SCT026 01/M01 A3023 RMK AO2 SLP241 T00111006 $
KCVG 180652Z 28005KT 10SM BKN020 OVC025 02/M01 A3021 RMK AO2 SLP234 T00171006 $
KCVG 180552Z 29011KT 10SM BKN018 OVC023 02/01 A3020 RMK AO2 SLP230 931000 60001 T00220011 10022 20011 53031 $
KCVG 180452Z 27010KT 10SM SCT012 BKN018 OVC026 02/02 A3014 RMK AO2 DZE44 SLP213 P0000 T00220017 400221006 $
KCVG 180430Z 27009KT 9SM DZ BKN012 BKN017 OVC032 02/02 A3013 RMK AO2 P0000 T00220022 $
KCVG 180418Z 26009KT 10SM DZ SCT012 BKN018 OVC032 02/02 A3013 RMK AO2 P0000 T00220022 $
KCVG 180352Z 25010G17KT 10SM -DZ BKN006 BKN016 OVC034 02/02 A3012 RMK AO2 DZE12B35RAB12E24 SLP206 P0000 T00220022 $
KCVG 180313Z 26011G19KT 4SM -RA BR OVC006 02/02 A3012 RMK AO2 DZE12RAB12 P0000 T00220022 $
KCVG 180252Z 25013KT 3SM -DZ OVC004 02/02 A3010 RMK AO2 RAE43DZB43SNE14 SLP198 P0000 60001 T00170017 53018 $
KCVG 180245Z 25009KT 3SM -DZ OVC004 02/02 A3010 RMK AO2 RAE43DZB43SNE14 P0000 T00170017 $
KCVG 180227Z 25008KT 1/2SM R18C/P6000FT -RA BR BKN004 OVC007 02/02 A3008 RMK AO2 SFC VIS 3 SNE14 P0000 T00170017 $
KCVG 180152Z 22009KT 1/2SM R18C/P6000FT -RASN BR BKN005 OVC009 01/01 A3006 RMK AO2 SFC VIS 3 SLP185 P0000 T00110011 $
KCVG 180142Z 22006KT 1/2SM R18C/P6000FT -RASN BR BKN005 OVC009 01/01 A3006 RMK AO2 SFC VIS 2 1/2 P0000 T00110011 $
KCVG 180052Z 23004KT 1/2SM R18C/P6000FT -RASN BR BKN002 OVC004 01/01 A3006 RMK AO2 SFC VIS 2 SNB32 SLP185 P0001 T00110011 $
KCVG 172354Z 23005KT 1/2SM R18C/P6000FT -RA BR OVC004 01/01 A3005 RMK AO2 SFC VIS 2 P0000 T00110011 $
KCVG 172352Z 23006KT 1/2SM R18C/P6000FT -RA BR OVC005 01/01 A3005 RMK AO2 SFC VIS 2 RAB50 SLP180 4/001 931006 P0001 60015 T00110011 10011 20006 53018 $
KCVG 172341Z COR 23005KT 1/2SM R18C/P6000FT FG OVC005 01/01 A3004 RMK AO2 SFC VIS 2 P0001 T00110011 $
KCVG 172252Z 23003KT 1/2SM R18C/5000V6000FT FG OVC003 01/01 A3002 RMK AO2 SFC VIS 1 DZB07E42 SLP172 P0001 T00110011 $
KCVG 172228Z COR 00000KT 1/2SM R18C/6000FT FG OVC003 01/01 A3002 RMK AO2 SFC VIS 1 1/4 DZB07 P0000 T00110011 $
KCVG 172209Z 21003KT 1 1/4SM R18C/5500VP6000FT -DZ OVC004 01/01 A3001 RMK AO2 SFC VIS 1 1/2 DZB07 P0000 T00110011 $
KCVG 172152Z 20005KT 2SM BR BKN004 OVC012 01/01 A3000 RMK AO2 SFC VIS 3 SLP166 T00110011 $
KCVG 172052Z 18006KT 2SM BR OVC004 01/01 A2999 RMK AO2 SFC VIS 2 1/2 SNE45 SLP162 P0001 60013 T00110011 56025 $
KCVG 172049Z 18006KT 2SM BR OVC004 01/01 A2999 RMK AO2 SFC VIS 2 1/2 SNE45 P0001 $
KCVG 171952Z 16004KT 1SM R18C/4000VP6000FT -SN BR OVC004 01/01 A3000 RMK AO2 SLP163 P0003 T00060006 $
KCVG 171915Z 12004KT 1SM R18C/5000VP6000FT -SN BR BKN002 OVC004 01/01 A2999 RMK AO2 P0002 T00060006 $
KCVG 171852Z 08003KT 1/2SM R18C/2800V3000FT SN FG BKN004 OVC012 01/01 A3001 RMK AO2 SLP169 P0009 T00060006 $
KCVG 171752Z 00000KT 1/2SM R18C/3000V4000FT SN FG BKN003 OVC007 01/01 A3007 RMK AO2 SLP187 SNINCR 1/1 4/001 931005 P0006 60008 T00060006 10017 21006 58015 $
KCVG 171722Z 14004KT 1/2SM R18C/3000V3500FT SN FG BKN007 OVC011 01/01 A3009 RMK AO2 P0003 T00060006 $
KCVG 171652Z 16005KT 1/2SM R18C/4500V6000FT SN FG SCT009 BKN010 OVC015 01/01 A3010 RMK AO2 TWR VIS 1 SLP199 SNB25 P0002 T00060006 $
KCVG 171636Z 16008KT 1/2SM R18C/3500VP6000FT BR SCT009 BKN011 OVC014 01/00 A3011 RMK AO2 SFC VIS 1 SNB25SNEMM PRESFR P0000 T00060000 $
KCVG 171627Z 17009KT 1SM R18C/P6000FT -SN BR BKN019 OVC024 01/M01 A3012 RMK AO2 SFC VIS 2 SNB25 P0000 T00111006
KCVG 171552Z 00000KT 9SM BKN045 OVC065 02/M02 A3016 RMK AO2 SLP217 T00171017
KCVG 171452Z 12007KT 10SM BKN100 OVC120 01/M02 A3011 RMK AO2 SLP202 T00111017 58023
KCVG 171352Z 10006KT 10SM BKN110 OVC150 01/M02 A3017 RMK AO2 SLP221 T00061022
KCVG 171252Z 11007KT 10SM BKN030 OVC150 00/M02 A3017 RMK AO2 SLP221 T00001022
KCVG 171152Z 10005KT 10SM SCT029 OVC200 M01/M02 A3018 RMK AO2 SLP226 BINOVC 70007 T10061022 10017 21006 56015
KCVG 171134Z 11005KT 10SM SCT029 OVC200 M01/M02 A3018 RMK AO2 BINOVC T10061022
KCVG 171052Z 11005KT 10SM OVC029 M01/M02 A3020 RMK AO2 SLP232 BINOVC T10061022
KCVG 170952Z 08006KT 10SM BKN028 OVC250 M01/M02 A3020 RMK AO2 SLP232 BINOVC T10061022
KCVG 170852Z 00000KT 10SM BKN030 00/M03 A3023 RMK AO2 SLP241 T00001028 58012
KCVG 170752Z 00000KT 10SM BKN031 01/M03 A3025 RMK AO2 SLP247 T00061028